sensor_id;sensor_type;location;lat;lon;timestamp;P1;durP1;ratioP1;P2;durP2;ratioP2
54983;SDS011;40884;53.562;9.940;2023-03-17T00:00:34;4.03;;;1.90;;
54983;SDS011;40884;53.562;9.940;2023-03-17T00:01:34;4.83;;;1.70;;
54983;SDS011;40884;53.562;9.940;2023-03-17T00:02:35;3.97;;;2.20;;
54983;SDS011;40884;53.562;9.940;2023-03-17T00:03:36;2.83;;;1.80;;
54983;SDS011;40884;53.562;9.940;2023-03-17T00:04:37;4.75;;;2.53;;
54983;SDS011;40884;53.562;9.940;2023-03-17T00:05:37;5.30;;;2.83;;
54983;SDS011;40884;53.562;9.940;2023-03-17T00:06:37;3.30;;;2.00;;
54983;SDS011;40884;53.562;9.940;2023-03-17T00:07:38;2.73;;;1.80;;
54983;SDS011;40884;53.562;9.940;2023-03-17T00:08:38;3.40;;;1.40;;
54983;SDS011;40884;53.562;9.940;2023-03-17T00:09:38;4.57;;;2.33;;
54983;SDS011;40884;53.562;9.940;2023-03-17T00:10:38;2.90;;;2.00;;
54983;SDS011;40884;53.562;9.940;2023-03-17T00:11:38;4.37;;;2.93;;
54983;SDS011;40884;53.562;9.940;2023-03-17T00:12:38;2.70;;;2.00;;
54983;SDS011;40884;53.562;9.940;2023-03-17T00:13:39;3.70;;;2.17;;
54983;SDS011;40884;53.562;9.940;2023-03-17T00:14:39;4.67;;;2.57;;
54983;SDS011;40884;53.562;9.940;2023-03-17T00:15:39;2.17;;;1.53;;
54983;SDS011;40884;53.562;9.940;2023-03-17T00:16:40;3.60;;;2.20;;
54983;SDS011;40884;53.562;9.940;2023-03-17T00:17:41;2.90;;;1.85;;
54983;SDS011;40884;53.562;9.940;2023-03-17T00:18:41;3.47;;;2.30;;
54983;SDS011;40884;53.562;9.940;2023-03-17T00:19:41;5.97;;;3.37;;
54983;SDS011;40884;53.562;9.940;2023-03-17T00:20:41;5.10;;;2.73;;
54983;SDS011;40884;53.562;9.940;2023-03-17T00:21:42;3.47;;;2.17;;
54983;SDS011;40884;53.562;9.940;2023-03-17T00:22:42;5.50;;;4.30;;
54983;SDS011;40884;53.562;9.940;2023-03-17T00:23:43;6.50;;;2.80;;
54983;SDS011;40884;53.562;9.940;2023-03-17T00:24:44;4.13;;;2.45;;
54983;SDS011;40884;53.562;9.940;2023-03-17T00:25:45;3.60;;;2.47;;
54983;SDS011;40884;53.562;9.940;2023-03-17T00:26:45;3.27;;;2.00;;
54983;SDS011;40884;53.562;9.940;2023-03-17T00:27:45;3.00;;;1.70;;
54983;SDS011;40884;53.562;9.940;2023-03-17T00:28:45;4.40;;;2.27;;
54983;SDS011;40884;53.562;9.940;2023-03-17T00:29:46;6.07;;;2.85;;
54983;SDS011;40884;53.562;9.940;2023-03-17T00:30:47;5.50;;;3.10;;
54983;SDS011;40884;53.562;9.940;2023-03-17T00:31:47;2.83;;;1.57;;
54983;SDS011;40884;53.562;9.940;2023-03-17T00:32:48;2.77;;;1.47;;
54983;SDS011;40884;53.562;9.940;2023-03-17T00:33:49;3.78;;;1.90;;
54983;SDS011;40884;53.562;9.940;2023-03-17T00:34:50;3.05;;;1.50;;
54983;SDS011;40884;53.562;9.940;2023-03-17T00:35:50;3.90;;;1.83;;
54983;SDS011;40884;53.562;9.940;2023-03-17T00:36:50;5.00;;;3.50;;
54983;SDS011;40884;53.562;9.940;2023-03-17T00:37:51;4.67;;;2.93;;
54983;SDS011;40884;53.562;9.940;2023-03-17T00:38:51;4.68;;;2.05;;
54983;SDS011;40884;53.562;9.940;2023-03-17T00:39:52;3.27;;;2.17;;
54983;SDS011;40884;53.562;9.940;2023-03-17T00:40:52;4.53;;;1.70;;
54983;SDS011;40884;53.562;9.940;2023-03-17T00:41:55;2.83;;;1.50;;
54983;SDS011;40884;53.562;9.940;2023-03-17T00:42:56;2.90;;;1.50;;
54983;SDS011;40884;53.562;9.940;2023-03-17T00:43:57;2.30;;;1.40;;
54983;SDS011;40884;53.562;9.940;2023-03-17T00:44:57;2.70;;;1.50;;
54983;SDS011;40884;53.562;9.940;2023-03-17T00:45:57;3.57;;;1.40;;
54983;SDS011;40884;53.562;9.940;2023-03-17T00:46:57;1.70;;;1.33;;
54983;SDS011;40884;53.562;9.940;2023-03-17T00:48:00;2.88;;;1.48;;
54983;SDS011;40884;53.562;9.940;2023-03-17T00:49:02;5.77;;;1.40;;
54983;SDS011;40884;53.562;9.940;2023-03-17T00:50:03;2.85;;;1.58;;
54983;SDS011;40884;53.562;9.940;2023-03-17T00:51:03;3.80;;;1.80;;
54983;SDS011;40884;53.562;9.940;2023-03-17T00:52:04;2.40;;;1.43;;
54983;SDS011;40884;53.562;9.940;2023-03-17T00:53:05;3.33;;;1.63;;
54983;SDS011;40884;53.562;9.940;2023-03-17T00:54:05;3.83;;;1.70;;
54983;SDS011;40884;53.562;9.940;2023-03-17T00:55:06;2.70;;;1.47;;
54983;SDS011;40884;53.562;9.940;2023-03-17T00:56:13;3.47;;;1.30;;
54983;SDS011;40884;53.562;9.940;2023-03-17T00:57:14;3.17;;;1.60;;
54983;SDS011;40884;53.562;9.940;2023-03-17T00:58:22;3.70;;;1.80;;
54983;SDS011;40884;53.562;9.940;2023-03-17T00:59:25;3.55;;;1.60;;
54983;SDS011;40884;53.562;9.940;2023-03-17T01:00:27;3.50;;;1.60;;
54983;SDS011;40884;53.562;9.940;2023-03-17T01:01:28;2.40;;;1.20;;
54983;SDS011;40884;53.562;9.940;2023-03-17T01:02:28;3.17;;;1.23;;
54983;SDS011;40884;53.562;9.940;2023-03-17T01:03:28;2.47;;;1.60;;
54983;SDS011;40884;53.562;9.940;2023-03-17T01:04:29;1.53;;;1.40;;
54983;SDS011;40884;53.562;9.940;2023-03-17T01:05:29;4.13;;;1.30;;
54983;SDS011;40884;53.562;9.940;2023-03-17T01:06:29;2.00;;;1.57;;
54983;SDS011;40884;53.562;9.940;2023-03-17T01:07:29;2.80;;;1.70;;
54983;SDS011;40884;53.562;9.940;2023-03-17T01:08:29;2.23;;;1.50;;
54983;SDS011;40884;53.562;9.940;2023-03-17T01:09:30;4.00;;;1.40;;
54983;SDS011;40884;53.562;9.940;2023-03-17T01:10:31;1.70;;;1.50;;
54983;SDS011;40884;53.562;9.940;2023-03-17T01:11:31;2.27;;;1.57;;
54983;SDS011;40884;53.562;9.940;2023-03-17T01:12:31;3.47;;;1.60;;
54983;SDS011;40884;53.562;9.940;2023-03-17T01:13:31;3.00;;;1.70;;
54983;SDS011;40884;53.562;9.940;2023-03-17T01:14:32;4.03;;;1.80;;
54983;SDS011;40884;53.562;9.940;2023-03-17T01:15:33;4.70;;;2.20;;
54983;SDS011;40884;53.562;9.940;2023-03-17T01:16:34;3.87;;;1.63;;
54983;SDS011;40884;53.562;9.940;2023-03-17T01:17:34;2.07;;;1.53;;
54983;SDS011;40884;53.562;9.940;2023-03-17T01:18:34;4.10;;;1.73;;
54983;SDS011;40884;53.562;9.940;2023-03-17T01:19:34;2.97;;;1.70;;
54983;SDS011;40884;53.562;9.940;2023-03-17T01:20:34;4.77;;;1.90;;
54983;SDS011;40884;53.562;9.940;2023-03-17T01:21:34;2.83;;;1.83;;
54983;SDS011;40884;53.562;9.940;2023-03-17T01:22:35;2.43;;;1.83;;
54983;SDS011;40884;53.562;9.940;2023-03-17T01:23:35;4.20;;;2.03;;
54983;SDS011;40884;53.562;9.940;2023-03-17T01:24:35;4.23;;;2.07;;
54983;SDS011;40884;53.562;9.940;2023-03-17T01:25:36;3.97;;;1.80;;
54983;SDS011;40884;53.562;9.940;2023-03-17T01:26:36;3.63;;;1.92;;
54983;SDS011;40884;53.562;9.940;2023-03-17T01:27:37;2.70;;;1.83;;
54983;SDS011;40884;53.562;9.940;2023-03-17T01:28:37;2.40;;;1.50;;
54983;SDS011;40884;53.562;9.940;2023-03-17T01:29:37;3.67;;;1.93;;
54983;SDS011;40884;53.562;9.940;2023-03-17T01:30:38;2.83;;;1.70;;
54983;SDS011;40884;53.562;9.940;2023-03-17T01:31:38;4.07;;;1.80;;
54983;SDS011;40884;53.562;9.940;2023-03-17T01:32:39;2.97;;;1.80;;
54983;SDS011;40884;53.562;9.940;2023-03-17T01:33:39;3.70;;;1.70;;
54983;SDS011;40884;53.562;9.940;2023-03-17T01:34:39;3.97;;;1.67;;
54983;SDS011;40884;53.562;9.940;2023-03-17T01:35:39;3.60;;;1.90;;
54983;SDS011;40884;53.562;9.940;2023-03-17T01:36:40;2.90;;;1.70;;
54983;SDS011;40884;53.562;9.940;2023-03-17T01:37:41;2.07;;;1.60;;
54983;SDS011;40884;53.562;9.940;2023-03-17T01:38:41;4.23;;;1.90;;
54983;SDS011;40884;53.562;9.940;2023-03-17T01:39:41;3.63;;;1.43;;
54983;SDS011;40884;53.562;9.940;2023-03-17T01:40:43;3.07;;;2.03;;
54983;SDS011;40884;53.562;9.940;2023-03-17T01:41:44;2.33;;;1.55;;
54983;SDS011;40884;53.562;9.940;2023-03-17T01:42:50;3.37;;;1.80;;
54983;SDS011;40884;53.562;9.940;2023-03-17T01:43:50;3.15;;;1.73;;
54983;SDS011;40884;53.562;9.940;2023-03-17T01:44:57;2.87;;;1.80;;
54983;SDS011;40884;53.562;9.940;2023-03-17T01:47:10;3.15;;;1.65;;
54983;SDS011;40884;53.562;9.940;2023-03-17T01:48:10;2.57;;;1.70;;
54983;SDS011;40884;53.562;9.940;2023-03-17T01:50:29;2.28;;;1.77;;
54983;SDS011;40884;53.562;9.940;2023-03-17T01:51:31;2.67;;;1.73;;
54983;SDS011;40884;53.562;9.940;2023-03-17T01:52:33;2.85;;;1.80;;
54983;SDS011;40884;53.562;9.940;2023-03-17T01:53:34;3.25;;;1.70;;
54983;SDS011;40884;53.562;9.940;2023-03-17T01:55:41;3.70;;;2.00;;
54983;SDS011;40884;53.562;9.940;2023-03-17T01:56:42;3.67;;;1.90;;
54983;SDS011;40884;53.562;9.940;2023-03-17T01:57:44;4.05;;;2.00;;
54983;SDS011;40884;53.562;9.940;2023-03-17T01:58:45;3.83;;;1.80;;
54983;SDS011;40884;53.562;9.940;2023-03-17T01:59:55;3.17;;;1.70;;
54983;SDS011;40884;53.562;9.940;2023-03-17T02:00:56;3.47;;;1.73;;
54983;SDS011;40884;53.562;9.940;2023-03-17T02:01:58;4.20;;;2.20;;
54983;SDS011;40884;53.562;9.940;2023-03-17T02:02:59;3.30;;;1.73;;
54983;SDS011;40884;53.562;9.940;2023-03-17T02:03:59;3.23;;;1.83;;
54983;SDS011;40884;53.562;9.940;2023-03-17T02:04:59;2.77;;;1.80;;
54983;SDS011;40884;53.562;9.940;2023-03-17T02:06:00;2.40;;;1.80;;
54983;SDS011;40884;53.562;9.940;2023-03-17T02:07:01;3.33;;;2.10;;
54983;SDS011;40884;53.562;9.940;2023-03-17T02:08:07;3.15;;;2.08;;
54983;SDS011;40884;53.562;9.940;2023-03-17T02:09:07;2.60;;;2.13;;
54983;SDS011;40884;53.562;9.940;2023-03-17T02:10:09;3.50;;;1.97;;
54983;SDS011;40884;53.562;9.940;2023-03-17T02:11:11;3.05;;;1.80;;
54983;SDS011;40884;53.562;9.940;2023-03-17T02:12:13;3.47;;;1.75;;
54983;SDS011;40884;53.562;9.940;2023-03-17T02:13:13;4.50;;;1.93;;
54983;SDS011;40884;53.562;9.940;2023-03-17T02:14:14;3.60;;;1.90;;
54983;SDS011;40884;53.562;9.940;2023-03-17T02:15:14;3.33;;;1.97;;
54983;SDS011;40884;53.562;9.940;2023-03-17T02:16:14;2.30;;;1.73;;
54983;SDS011;40884;53.562;9.940;2023-03-17T02:17:15;2.93;;;2.20;;
54983;SDS011;40884;53.562;9.940;2023-03-17T02:18:17;2.83;;;2.07;;
54983;SDS011;40884;53.562;9.940;2023-03-17T02:19:17;2.22;;;1.88;;
54983;SDS011;40884;53.562;9.940;2023-03-17T02:21:30;3.17;;;2.03;;
54983;SDS011;40884;53.562;9.940;2023-03-17T02:22:32;4.00;;;2.38;;
54983;SDS011;40884;53.562;9.940;2023-03-17T02:23:32;4.03;;;2.23;;
54983;SDS011;40884;53.562;9.940;2023-03-17T02:24:34;2.93;;;1.93;;
54983;SDS011;40884;53.562;9.940;2023-03-17T02:25:34;2.95;;;2.00;;
54983;SDS011;40884;53.562;9.940;2023-03-17T02:26:36;3.17;;;1.92;;
54983;SDS011;40884;53.562;9.940;2023-03-17T02:27:38;3.40;;;2.27;;
54983;SDS011;40884;53.562;9.940;2023-03-17T02:28:40;3.72;;;2.00;;
54983;SDS011;40884;53.562;9.940;2023-03-17T02:29:40;6.73;;;2.43;;
54983;SDS011;40884;53.562;9.940;2023-03-17T02:30:42;4.13;;;2.05;;
54983;SDS011;40884;53.562;9.940;2023-03-17T02:31:43;5.13;;;2.50;;
54983;SDS011;40884;53.562;9.940;2023-03-17T02:32:43;3.47;;;2.27;;
54983;SDS011;40884;53.562;9.940;2023-03-17T02:33:43;3.27;;;2.30;;
54983;SDS011;40884;53.562;9.940;2023-03-17T02:34:44;4.87;;;2.10;;
54983;SDS011;40884;53.562;9.940;2023-03-17T02:35:44;4.37;;;2.53;;
54983;SDS011;40884;53.562;9.940;2023-03-17T02:36:45;4.93;;;2.60;;
54983;SDS011;40884;53.562;9.940;2023-03-17T02:37:45;2.63;;;2.00;;
54983;SDS011;40884;53.562;9.940;2023-03-17T02:38:45;4.07;;;2.37;;
54983;SDS011;40884;53.562;9.940;2023-03-17T02:39:45;4.07;;;2.20;;
54983;SDS011;40884;53.562;9.940;2023-03-17T02:40:46;3.47;;;2.40;;
54983;SDS011;40884;53.562;9.940;2023-03-17T02:41:46;3.67;;;2.10;;
54983;SDS011;40884;53.562;9.940;2023-03-17T02:42:47;5.33;;;2.10;;
54983;SDS011;40884;53.562;9.940;2023-03-17T02:43:47;3.63;;;2.10;;
54983;SDS011;40884;53.562;9.940;2023-03-17T02:44:47;3.73;;;2.20;;
54983;SDS011;40884;53.562;9.940;2023-03-17T02:45:48;2.63;;;2.00;;
54983;SDS011;40884;53.562;9.940;2023-03-17T02:46:48;4.23;;;2.13;;
54983;SDS011;40884;53.562;9.940;2023-03-17T02:47:48;4.30;;;2.47;;
54983;SDS011;40884;53.562;9.940;2023-03-17T02:48:49;4.43;;;2.20;;
54983;SDS011;40884;53.562;9.940;2023-03-17T02:49:49;3.43;;;2.20;;
54983;SDS011;40884;53.562;9.940;2023-03-17T02:50:49;3.13;;;2.40;;
54983;SDS011;40884;53.562;9.940;2023-03-17T02:51:49;2.83;;;1.83;;
54983;SDS011;40884;53.562;9.940;2023-03-17T02:52:50;3.60;;;2.00;;
54983;SDS011;40884;53.562;9.940;2023-03-17T02:53:50;4.43;;;2.53;;
54983;SDS011;40884;53.562;9.940;2023-03-17T02:54:50;5.47;;;2.40;;
54983;SDS011;40884;53.562;9.940;2023-03-17T02:55:50;5.13;;;2.47;;
54983;SDS011;40884;53.562;9.940;2023-03-17T02:56:50;3.37;;;2.27;;
54983;SDS011;40884;53.562;9.940;2023-03-17T02:57:51;3.63;;;2.57;;
54983;SDS011;40884;53.562;9.940;2023-03-17T02:58:51;4.07;;;2.40;;
54983;SDS011;40884;53.562;9.940;2023-03-17T02:59:51;3.13;;;2.20;;
54983;SDS011;40884;53.562;9.940;2023-03-17T03:00:51;5.23;;;2.67;;
54983;SDS011;40884;53.562;9.940;2023-03-17T03:01:51;4.67;;;2.17;;
54983;SDS011;40884;53.562;9.940;2023-03-17T03:02:51;3.60;;;2.07;;
54983;SDS011;40884;53.562;9.940;2023-03-17T03:03:51;4.27;;;2.37;;
54983;SDS011;40884;53.562;9.940;2023-03-17T03:04:52;3.30;;;2.10;;
54983;SDS011;40884;53.562;9.940;2023-03-17T03:05:52;3.17;;;2.07;;
54983;SDS011;40884;53.562;9.940;2023-03-17T03:06:52;4.03;;;2.17;;
54983;SDS011;40884;53.562;9.940;2023-03-17T03:07:52;3.93;;;2.20;;
54983;SDS011;40884;53.562;9.940;2023-03-17T03:08:53;4.83;;;2.50;;
54983;SDS011;40884;53.562;9.940;2023-03-17T03:09:53;2.93;;;2.23;;
54983;SDS011;40884;53.562;9.940;2023-03-17T03:10:53;4.37;;;2.40;;
54983;SDS011;40884;53.562;9.940;2023-03-17T03:11:53;2.60;;;2.03;;
54983;SDS011;40884;53.562;9.940;2023-03-17T03:12:53;3.50;;;2.13;;
54983;SDS011;40884;53.562;9.940;2023-03-17T03:13:53;3.00;;;2.33;;
54983;SDS011;40884;53.562;9.940;2023-03-17T03:14:54;3.30;;;2.10;;
54983;SDS011;40884;53.562;9.940;2023-03-17T03:15:54;3.77;;;2.47;;
54983;SDS011;40884;53.562;9.940;2023-03-17T03:16:54;4.27;;;2.40;;
54983;SDS011;40884;53.562;9.940;2023-03-17T03:17:54;5.90;;;3.10;;
54983;SDS011;40884;53.562;9.940;2023-03-17T03:18:54;3.00;;;2.43;;
54983;SDS011;40884;53.562;9.940;2023-03-17T03:19:54;3.00;;;2.57;;
54983;SDS011;40884;53.562;9.940;2023-03-17T03:20:54;5.13;;;2.37;;
54983;SDS011;40884;53.562;9.940;2023-03-17T03:21:55;6.90;;;2.70;;
54983;SDS011;40884;53.562;9.940;2023-03-17T03:22:55;5.00;;;2.33;;
54983;SDS011;40884;53.562;9.940;2023-03-17T03:23:55;3.40;;;2.30;;
54983;SDS011;40884;53.562;9.940;2023-03-17T03:24:55;3.83;;;2.60;;
54983;SDS011;40884;53.562;9.940;2023-03-17T03:25:55;5.13;;;2.60;;
54983;SDS011;40884;53.562;9.940;2023-03-17T03:26:56;3.00;;;2.40;;
54983;SDS011;40884;53.562;9.940;2023-03-17T03:27:56;4.50;;;2.30;;
54983;SDS011;40884;53.562;9.940;2023-03-17T03:28:56;3.03;;;2.40;;
54983;SDS011;40884;53.562;9.940;2023-03-17T03:29:56;3.67;;;2.10;;
54983;SDS011;40884;53.562;9.940;2023-03-17T03:30:56;3.33;;;2.10;;
54983;SDS011;40884;53.562;9.940;2023-03-17T03:31:56;4.37;;;2.67;;
54983;SDS011;40884;53.562;9.940;2023-03-17T03:32:56;5.27;;;2.50;;
54983;SDS011;40884;53.562;9.940;2023-03-17T03:33:57;3.93;;;2.43;;
54983;SDS011;40884;53.562;9.940;2023-03-17T03:34:57;3.27;;;2.30;;
54983;SDS011;40884;53.562;9.940;2023-03-17T03:35:57;4.33;;;2.50;;
54983;SDS011;40884;53.562;9.940;2023-03-17T03:36:57;3.77;;;2.50;;
54983;SDS011;40884;53.562;9.940;2023-03-17T03:37:57;3.17;;;2.37;;
54983;SDS011;40884;53.562;9.940;2023-03-17T03:38:57;5.23;;;2.33;;
54983;SDS011;40884;53.562;9.940;2023-03-17T03:39:57;4.17;;;2.40;;
54983;SDS011;40884;53.562;9.940;2023-03-17T03:40:57;3.10;;;2.30;;
54983;SDS011;40884;53.562;9.940;2023-03-17T03:41:58;3.67;;;2.33;;
54983;SDS011;40884;53.562;9.940;2023-03-17T03:42:58;4.37;;;2.40;;
54983;SDS011;40884;53.562;9.940;2023-03-17T03:43:58;4.73;;;2.30;;
54983;SDS011;40884;53.562;9.940;2023-03-17T03:44:58;4.40;;;2.53;;
54983;SDS011;40884;53.562;9.940;2023-03-17T03:45:58;2.80;;;2.30;;
54983;SDS011;40884;53.562;9.940;2023-03-17T03:46:58;4.47;;;2.70;;
54983;SDS011;40884;53.562;9.940;2023-03-17T03:47:59;3.27;;;2.50;;
54983;SDS011;40884;53.562;9.940;2023-03-17T03:48:59;4.20;;;2.40;;
54983;SDS011;40884;53.562;9.940;2023-03-17T03:49:59;4.60;;;2.67;;
54983;SDS011;40884;53.562;9.940;2023-03-17T03:50:59;5.10;;;2.80;;
54983;SDS011;40884;53.562;9.940;2023-03-17T03:52:00;3.90;;;2.80;;
54983;SDS011;40884;53.562;9.940;2023-03-17T03:53:00;4.33;;;2.70;;
54983;SDS011;40884;53.562;9.940;2023-03-17T03:54:00;3.57;;;2.40;;
54983;SDS011;40884;53.562;9.940;2023-03-17T03:55:00;2.27;;;2.03;;
54983;SDS011;40884;53.562;9.940;2023-03-17T03:56:00;3.37;;;2.47;;
54983;SDS011;40884;53.562;9.940;2023-03-17T03:57:01;3.87;;;2.50;;
54983;SDS011;40884;53.562;9.940;2023-03-17T03:58:01;4.30;;;2.80;;
54983;SDS011;40884;53.562;9.940;2023-03-17T03:59:01;3.60;;;2.40;;
54983;SDS011;40884;53.562;9.940;2023-03-17T04:00:02;3.47;;;2.53;;
54983;SDS011;40884;53.562;9.940;2023-03-17T04:01:12;3.10;;;2.28;;
54983;SDS011;40884;53.562;9.940;2023-03-17T04:02:12;3.70;;;2.40;;
54983;SDS011;40884;53.562;9.940;2023-03-17T04:03:12;3.47;;;2.30;;
54983;SDS011;40884;53.562;9.940;2023-03-17T04:04:13;3.33;;;2.63;;
54983;SDS011;40884;53.562;9.940;2023-03-17T04:05:13;5.20;;;2.90;;
54983;SDS011;40884;53.562;9.940;2023-03-17T04:06:14;3.97;;;2.70;;
54983;SDS011;40884;53.562;9.940;2023-03-17T04:07:14;5.23;;;2.70;;
54983;SDS011;40884;53.562;9.940;2023-03-17T04:08:14;4.20;;;2.67;;
54983;SDS011;40884;53.562;9.940;2023-03-17T04:09:14;3.60;;;2.77;;
54983;SDS011;40884;53.562;9.940;2023-03-17T04:10:14;3.60;;;2.80;;
54983;SDS011;40884;53.562;9.940;2023-03-17T04:11:15;4.00;;;2.83;;
54983;SDS011;40884;53.562;9.940;2023-03-17T04:12:15;3.57;;;2.50;;
54983;SDS011;40884;53.562;9.940;2023-03-17T04:13:15;3.73;;;2.40;;
54983;SDS011;40884;53.562;9.940;2023-03-17T04:14:16;3.90;;;2.63;;
54983;SDS011;40884;53.562;9.940;2023-03-17T04:15:17;4.27;;;3.20;;
54983;SDS011;40884;53.562;9.940;2023-03-17T04:16:17;4.13;;;2.78;;
54983;SDS011;40884;53.562;9.940;2023-03-17T04:17:17;4.67;;;2.70;;
54983;SDS011;40884;53.562;9.940;2023-03-17T04:18:17;4.07;;;2.77;;
54983;SDS011;40884;53.562;9.940;2023-03-17T04:19:17;4.53;;;2.90;;
54983;SDS011;40884;53.562;9.940;2023-03-17T04:20:17;4.73;;;3.00;;
54983;SDS011;40884;53.562;9.940;2023-03-17T04:21:18;4.23;;;2.77;;
54983;SDS011;40884;53.562;9.940;2023-03-17T04:22:18;3.70;;;2.70;;
54983;SDS011;40884;53.562;9.940;2023-03-17T04:23:18;4.13;;;2.77;;
54983;SDS011;40884;53.562;9.940;2023-03-17T04:24:18;5.43;;;3.00;;
54983;SDS011;40884;53.562;9.940;2023-03-17T04:25:18;5.17;;;3.00;;
54983;SDS011;40884;53.562;9.940;2023-03-17T04:26:18;5.27;;;2.40;;
54983;SDS011;40884;53.562;9.940;2023-03-17T04:27:18;4.10;;;3.07;;
54983;SDS011;40884;53.562;9.940;2023-03-17T04:28:19;4.43;;;3.10;;
54983;SDS011;40884;53.562;9.940;2023-03-17T04:29:19;5.00;;;3.10;;
54983;SDS011;40884;53.562;9.940;2023-03-17T04:30:19;4.63;;;2.93;;
54983;SDS011;40884;53.562;9.940;2023-03-17T04:31:19;4.53;;;2.57;;
54983;SDS011;40884;53.562;9.940;2023-03-17T04:32:19;6.40;;;2.87;;
54983;SDS011;40884;53.562;9.940;2023-03-17T04:33:20;4.30;;;3.33;;
54983;SDS011;40884;53.562;9.940;2023-03-17T04:34:20;3.47;;;2.53;;
54983;SDS011;40884;53.562;9.940;2023-03-17T04:35:20;6.53;;;3.40;;
54983;SDS011;40884;53.562;9.940;2023-03-17T04:36:21;5.57;;;2.97;;
54983;SDS011;40884;53.562;9.940;2023-03-17T04:37:21;5.35;;;2.85;;
54983;SDS011;40884;53.562;9.940;2023-03-17T04:38:22;7.77;;;3.63;;
54983;SDS011;40884;53.562;9.940;2023-03-17T04:39:22;3.93;;;3.20;;
54983;SDS011;40884;53.562;9.940;2023-03-17T04:40:22;6.07;;;3.33;;
54983;SDS011;40884;53.562;9.940;2023-03-17T04:41:22;3.53;;;2.87;;
54983;SDS011;40884;53.562;9.940;2023-03-17T04:42:22;5.00;;;2.80;;
54983;SDS011;40884;53.562;9.940;2023-03-17T04:43:23;5.77;;;2.90;;
54983;SDS011;40884;53.562;9.940;2023-03-17T04:44:23;3.23;;;2.77;;
54983;SDS011;40884;53.562;9.940;2023-03-17T04:45:23;6.17;;;2.90;;
54983;SDS011;40884;53.562;9.940;2023-03-17T04:46:23;4.37;;;2.93;;
54983;SDS011;40884;53.562;9.940;2023-03-17T04:47:23;4.63;;;2.77;;
54983;SDS011;40884;53.562;9.940;2023-03-17T04:48:23;6.17;;;3.30;;
54983;SDS011;40884;53.562;9.940;2023-03-17T04:49:23;3.50;;;3.00;;
54983;SDS011;40884;53.562;9.940;2023-03-17T04:50:24;4.43;;;3.30;;
54983;SDS011;40884;53.562;9.940;2023-03-17T04:51:24;5.37;;;3.13;;
54983;SDS011;40884;53.562;9.940;2023-03-17T04:52:24;4.60;;;2.70;;
54983;SDS011;40884;53.562;9.940;2023-03-17T04:53:24;4.27;;;3.33;;
54983;SDS011;40884;53.562;9.940;2023-03-17T04:54:24;4.37;;;3.00;;
54983;SDS011;40884;53.562;9.940;2023-03-17T04:55:24;4.03;;;2.83;;
54983;SDS011;40884;53.562;9.940;2023-03-17T04:56:24;4.90;;;3.10;;
54983;SDS011;40884;53.562;9.940;2023-03-17T04:57:25;5.33;;;3.17;;
54983;SDS011;40884;53.562;9.940;2023-03-17T04:58:25;4.27;;;3.30;;
54983;SDS011;40884;53.562;9.940;2023-03-17T04:59:25;4.67;;;2.80;;
54983;SDS011;40884;53.562;9.940;2023-03-17T05:00:25;3.87;;;3.00;;
54983;SDS011;40884;53.562;9.940;2023-03-17T05:01:25;4.33;;;3.17;;
54983;SDS011;40884;53.562;9.940;2023-03-17T05:02:26;6.80;;;3.17;;
54983;SDS011;40884;53.562;9.940;2023-03-17T05:03:26;5.40;;;3.03;;
54983;SDS011;40884;53.562;9.940;2023-03-17T05:04:26;4.93;;;3.20;;
54983;SDS011;40884;53.562;9.940;2023-03-17T05:05:26;5.17;;;3.10;;
54983;SDS011;40884;53.562;9.940;2023-03-17T05:06:26;4.60;;;3.20;;
54983;SDS011;40884;53.562;9.940;2023-03-17T05:07:26;5.07;;;3.03;;
54983;SDS011;40884;53.562;9.940;2023-03-17T05:08:26;10.37;;;3.63;;
54983;SDS011;40884;53.562;9.940;2023-03-17T05:09:27;3.70;;;3.10;;
54983;SDS011;40884;53.562;9.940;2023-03-17T05:10:27;5.27;;;3.00;;
54983;SDS011;40884;53.562;9.940;2023-03-17T05:11:27;4.67;;;3.20;;
54983;SDS011;40884;53.562;9.940;2023-03-17T05:12:27;4.97;;;3.40;;
54983;SDS011;40884;53.562;9.940;2023-03-17T05:13:27;3.97;;;3.30;;
54983;SDS011;40884;53.562;9.940;2023-03-17T05:14:27;8.90;;;3.47;;
54983;SDS011;40884;53.562;9.940;2023-03-17T05:15:27;4.23;;;3.57;;
54983;SDS011;40884;53.562;9.940;2023-03-17T05:16:28;3.27;;;2.97;;
54983;SDS011;40884;53.562;9.940;2023-03-17T05:17:28;6.07;;;3.47;;
54983;SDS011;40884;53.562;9.940;2023-03-17T05:18:28;6.10;;;3.23;;
54983;SDS011;40884;53.562;9.940;2023-03-17T05:19:29;4.07;;;3.03;;
54983;SDS011;40884;53.562;9.940;2023-03-17T05:20:29;6.70;;;3.57;;
54983;SDS011;40884;53.562;9.940;2023-03-17T05:21:29;5.07;;;3.47;;
54983;SDS011;40884;53.562;9.940;2023-03-17T05:22:29;5.73;;;3.30;;
54983;SDS011;40884;53.562;9.940;2023-03-17T05:23:30;5.10;;;3.23;;
54983;SDS011;40884;53.562;9.940;2023-03-17T05:24:30;5.13;;;3.50;;
54983;SDS011;40884;53.562;9.940;2023-03-17T05:25:30;3.97;;;2.93;;
54983;SDS011;40884;53.562;9.940;2023-03-17T05:26:30;5.73;;;3.50;;
54983;SDS011;40884;53.562;9.940;2023-03-17T05:27:30;4.67;;;3.70;;
54983;SDS011;40884;53.562;9.940;2023-03-17T05:28:31;6.07;;;3.40;;
54983;SDS011;40884;53.562;9.940;2023-03-17T05:29:31;5.40;;;3.33;;
54983;SDS011;40884;53.562;9.940;2023-03-17T05:30:31;5.67;;;3.20;;
54983;SDS011;40884;53.562;9.940;2023-03-17T05:31:32;4.40;;;3.33;;
54983;SDS011;40884;53.562;9.940;2023-03-17T05:32:32;5.00;;;3.57;;
54983;SDS011;40884;53.562;9.940;2023-03-17T05:33:32;5.53;;;3.23;;
54983;SDS011;40884;53.562;9.940;2023-03-17T05:34:32;8.23;;;3.70;;
54983;SDS011;40884;53.562;9.940;2023-03-17T05:35:32;4.67;;;3.23;;
54983;SDS011;40884;53.562;9.940;2023-03-17T05:36:33;5.00;;;3.40;;
54983;SDS011;40884;53.562;9.940;2023-03-17T05:37:33;4.80;;;3.47;;
54983;SDS011;40884;53.562;9.940;2023-03-17T05:38:33;5.93;;;3.37;;
54983;SDS011;40884;53.562;9.940;2023-03-17T05:39:33;4.70;;;3.67;;
54983;SDS011;40884;53.562;9.940;2023-03-17T05:40:33;4.60;;;3.17;;
54983;SDS011;40884;53.562;9.940;2023-03-17T05:41:34;5.13;;;3.60;;
54983;SDS011;40884;53.562;9.940;2023-03-17T05:42:34;3.47;;;2.90;;
54983;SDS011;40884;53.562;9.940;2023-03-17T05:43:34;5.70;;;3.63;;
54983;SDS011;40884;53.562;9.940;2023-03-17T05:44:34;4.60;;;3.43;;
54983;SDS011;40884;53.562;9.940;2023-03-17T05:45:34;5.43;;;3.40;;
54983;SDS011;40884;53.562;9.940;2023-03-17T05:46:35;7.20;;;3.77;;
54983;SDS011;40884;53.562;9.940;2023-03-17T05:47:35;4.47;;;3.30;;
54983;SDS011;40884;53.562;9.940;2023-03-17T05:48:35;5.43;;;3.47;;
54983;SDS011;40884;53.562;9.940;2023-03-17T05:49:35;6.10;;;3.80;;
54983;SDS011;40884;53.562;9.940;2023-03-17T05:50:35;8.27;;;3.30;;
54983;SDS011;40884;53.562;9.940;2023-03-17T05:51:35;4.47;;;3.67;;
54983;SDS011;40884;53.562;9.940;2023-03-17T05:52:36;6.33;;;3.67;;
54983;SDS011;40884;53.562;9.940;2023-03-17T05:53:36;4.90;;;3.30;;
54983;SDS011;40884;53.562;9.940;2023-03-17T05:54:36;6.07;;;4.00;;
54983;SDS011;40884;53.562;9.940;2023-03-17T05:55:36;5.00;;;3.50;;
54983;SDS011;40884;53.562;9.940;2023-03-17T05:56:36;4.37;;;3.30;;
54983;SDS011;40884;53.562;9.940;2023-03-17T05:57:37;4.23;;;3.50;;
54983;SDS011;40884;53.562;9.940;2023-03-17T05:58:37;5.57;;;3.60;;
54983;SDS011;40884;53.562;9.940;2023-03-17T05:59:37;6.93;;;3.47;;
54983;SDS011;40884;53.562;9.940;2023-03-17T06:00:37;4.10;;;3.20;;
54983;SDS011;40884;53.562;9.940;2023-03-17T06:01:37;6.43;;;3.30;;
54983;SDS011;40884;53.562;9.940;2023-03-17T06:02:38;4.67;;;3.20;;
54983;SDS011;40884;53.562;9.940;2023-03-17T06:03:38;5.07;;;3.67;;
54983;SDS011;40884;53.562;9.940;2023-03-17T06:04:38;4.73;;;3.67;;
54983;SDS011;40884;53.562;9.940;2023-03-17T06:05:39;6.97;;;3.57;;
54983;SDS011;40884;53.562;9.940;2023-03-17T06:06:39;6.83;;;3.60;;
54983;SDS011;40884;53.562;9.940;2023-03-17T06:07:39;6.73;;;3.70;;
54983;SDS011;40884;53.562;9.940;2023-03-17T06:08:40;6.63;;;3.60;;
54983;SDS011;40884;53.562;9.940;2023-03-17T06:09:40;5.13;;;3.37;;